createdAt,value
2023-02-01T00:00:35.267Z,91.56
2023-02-01T00:02:40.633Z,91.45
2023-02-01T00:04:42.076Z,91.60
2023-02-01T00:06:43.562Z,91.41
2023-02-01T00:08:45.009Z,90.63
2023-02-01T00:10:46.365Z,90.35
2023-02-01T00:12:47.786Z,91.02
2023-02-01T00:14:49.366Z,90.87
2023-02-01T00:16:50.764Z,91.21
2023-02-01T00:18:57.636Z,91.21
2023-02-01T00:20:59.342Z,90.98
2023-02-01T00:23:00.714Z,89.90
2023-02-01T00:25:02.116Z,88.82
2023-02-01T00:27:03.557Z,89.13
2023-02-01T00:29:08.363Z,88.33
2023-02-01T00:31:09.988Z,87.88
2023-02-01T00:33:11.445Z,87.25
2023-02-01T00:35:13.058Z,87.38
2023-02-01T00:37:14.427Z,88.15
2023-02-01T00:39:17.298Z,88.21
2023-02-01T00:41:21.077Z,87.32
2023-02-01T00:43:22.458Z,87.03
2023-02-01T00:45:23.859Z,86.59
2023-02-01T00:47:25.235Z,86.07
2023-02-01T00:49:26.630Z,85.43
2023-02-01T00:51:29.307Z,84.75
2023-02-01T00:53:31.259Z,84.73
2023-02-01T00:55:32.614Z,84.84
2023-02-01T00:57:33.985Z,83.85
2023-02-01T00:59:35.405Z,83.66
2023-02-01T01:01:36.758Z,83.43
2023-02-01T01:03:42.715Z,83.08
2023-02-01T01:05:49.180Z,83.10
2023-02-01T01:07:50.653Z,81.53
2023-02-01T01:09:52.057Z,82.59
2023-02-01T01:11:53.708Z,81.62
2023-02-01T01:13:57.285Z,80.62
2023-02-01T01:16:03.661Z,81.00
2023-02-01T01:18:05.761Z,81.66
2023-02-01T01:20:07.656Z,81.63
2023-02-01T01:22:09.150Z,82.02
2023-02-01T01:24:10.558Z,81.50
2023-02-01T01:26:16.505Z,81.56
2023-02-01T01:28:17.881Z,82.23
2023-02-01T01:30:19.697Z,81.65
2023-02-01T01:32:21.494Z,82.18
2023-02-01T01:34:22.911Z,82.14
2023-02-01T01:36:25.589Z,81.87
2023-02-01T01:38:26.963Z,82.40
2023-02-01T01:40:29.955Z,81.61
2023-02-01T01:42:31.358Z,81.23
2023-02-01T01:44:59.065Z,81.34
2023-02-01T01:47:00.642Z,81.56
2023-02-01T01:49:21.314Z,82.51
2023-02-01T01:51:25.599Z,82.85
2023-02-01T01:53:32.292Z,82.25
2023-02-01T01:55:38.885Z,82.28
2023-02-01T01:57:45.013Z,82.65
2023-02-01T01:59:52.980Z,82.90
2023-02-01T02:01:54.746Z,82.48
2023-02-01T02:03:56.945Z,82.63
2023-02-01T02:06:00.316Z,82.80
2023-02-01T02:08:02.059Z,82.77
2023-02-01T02:10:06.841Z,82.91
2023-02-01T02:12:08.441Z,83.49
2023-02-01T02:14:14.689Z,82.94
2023-02-01T02:16:23.740Z,83.75
2023-02-01T02:18:48.910Z,83.34
2023-02-01T02:21:12.012Z,83.23
2023-02-01T02:23:24.215Z,83.64
2023-02-01T02:25:28.281Z,83.10
2023-02-01T02:27:39.664Z,83.22
2023-02-01T02:29:59.879Z,82.97
2023-02-01T02:32:01.225Z,83.16
2023-02-01T02:34:23.251Z,83.05
2023-02-01T02:36:53.994Z,82.29
2023-02-01T02:39:21.424Z,82.91
2023-02-01T02:41:52.457Z,82.25
2023-02-01T02:44:17.415Z,83.18
2023-02-01T02:46:57.559Z,83.12
2023-02-01T02:49:19.157Z,82.62
2023-02-01T02:51:48.584Z,82.46
2023-02-01T02:54:29.686Z,82.96
2023-02-01T02:56:50.012Z,82.76
2023-02-01T02:59:11.560Z,82.44
2023-02-01T03:01:31.471Z,82.48
2023-02-01T03:03:51.304Z,82.58
2023-02-01T03:05:53.035Z,81.87
2023-02-01T03:07:57.397Z,82.44
2023-02-01T03:10:05.008Z,81.24
2023-02-01T03:12:31.705Z,81.10
2023-02-01T03:14:39.014Z,80.77
2023-02-01T03:16:43.152Z,81.25
2023-02-01T03:18:59.078Z,82.03
2023-02-01T03:21:04.854Z,81.07
2023-02-01T03:23:07.462Z,81.12
2023-02-01T03:25:13.523Z,80.84
2023-02-01T03:27:21.036Z,81.47
2023-02-01T03:29:28.352Z,82.09
2023-02-01T03:31:30.114Z,81.48
2023-02-01T03:33:32.605Z,81.95
2023-02-01T03:35:59.068Z,81.83
2023-02-01T03:38:12.777Z,80.79
2023-02-01T03:40:17.409Z,80.76
2023-02-01T03:42:25.129Z,80.67
2023-02-01T03:44:39.181Z,81.42
2023-02-01T03:47:04.636Z,81.18
2023-02-01T03:49:14.065Z,81.37
2023-02-01T03:51:16.617Z,80.17
2023-02-01T03:53:21.842Z,80.37
2023-02-01T03:55:26.310Z,79.67
2023-02-01T03:57:32.582Z,80.58
2023-02-01T03:59:34.014Z,81.00
2023-02-01T04:01:35.386Z,81.18
2023-02-01T04:03:36.794Z,80.34
2023-02-01T04:05:38.166Z,80.83
2023-02-01T04:07:39.600Z,80.17
2023-02-01T04:09:40.997Z,80.02
2023-02-01T04:11:42.363Z,81.32
2023-02-01T04:13:44.192Z,81.20
2023-02-01T04:15:46.724Z,80.44
2023-02-01T04:17:48.122Z,80.26
2023-02-01T04:19:49.494Z,80.02
2023-02-01T04:21:50.862Z,80.18
2023-02-01T04:23:52.556Z,80.20
2023-02-01T04:25:54.018Z,80.26
2023-02-01T04:27:55.356Z,79.81
2023-02-01T04:29:58.452Z,80.34
2023-02-01T04:31:59.931Z,80.19
2023-02-01T04:34:01.339Z,80.14
2023-02-01T04:36:02.694Z,80.01
2023-02-01T04:38:04.036Z,80.87
2023-02-01T04:40:06.072Z,80.66
2023-02-01T04:42:07.475Z,80.37
2023-02-01T04:44:15.386Z,80.58
2023-02-01T04:46:16.792Z,80.72
2023-02-01T04:48:20.118Z,80.52
2023-02-01T04:50:21.860Z,80.55
2023-02-01T04:52:23.443Z,81.01
2023-02-01T04:54:24.839Z,80.85
2023-02-01T04:56:26.230Z,81.23
2023-02-01T04:58:27.600Z,80.96
2023-02-01T05:00:28.980Z,80.95
2023-02-01T05:02:30.527Z,80.95
2023-02-01T05:04:31.931Z,81.14
2023-02-01T05:06:33.367Z,81.12
2023-02-01T05:08:35.957Z,81.77
2023-02-01T05:10:38.028Z,81.76
2023-02-01T05:12:57.742Z,81.17
2023-02-01T05:14:59.077Z,81.66
2023-02-01T05:17:00.446Z,81.55
2023-02-01T05:19:02.016Z,81.69
2023-02-01T05:21:03.484Z,81.68
2023-02-01T05:23:04.959Z,81.13
2023-02-01T05:25:08.323Z,81.84
2023-02-01T05:27:09.941Z,81.88
2023-02-01T05:29:12.678Z,81.52
2023-02-01T05:31:14.135Z,82.17
2023-02-01T05:33:15.539Z,81.89
2023-02-01T05:35:17.127Z,81.44
2023-02-01T05:37:18.533Z,81.84
2023-02-01T05:39:19.996Z,81.91
2023-02-01T05:41:21.598Z,81.91
2023-02-01T05:43:23.598Z,82.11
2023-02-01T05:45:25.001Z,82.24
2023-02-01T05:47:26.659Z,82.22
2023-02-01T05:49:28.050Z,82.53
2023-02-01T05:51:29.527Z,82.12
2023-02-01T05:53:30.865Z,82.05
2023-02-01T05:55:33.403Z,82.24
2023-02-01T05:57:34.842Z,81.84
2023-02-01T05:59:38.105Z,82.04
2023-02-01T06:01:39.499Z,82.67
2023-02-01T06:03:40.858Z,82.40
2023-02-01T06:05:44.828Z,82.14
2023-02-01T06:07:46.234Z,82.83
2023-02-01T06:09:47.636Z,82.06
2023-02-01T06:11:49.871Z,81.72
2023-02-01T06:13:51.225Z,82.17
2023-02-01T06:15:53.042Z,82.15
2023-02-01T06:17:55.603Z,82.69
2023-02-01T06:19:56.954Z,82.10
2023-02-01T06:21:58.476Z,81.66
2023-02-01T06:24:00.037Z,81.87
2023-02-01T06:26:04.384Z,81.89
2023-02-01T06:28:06.728Z,81.89
2023-02-01T06:30:08.954Z,82.20
2023-02-01T06:32:10.329Z,82.43
2023-02-01T06:34:11.760Z,81.95
2023-02-01T06:36:13.245Z,82.39
2023-02-01T06:38:15.058Z,82.51
2023-02-01T06:40:16.559Z,82.19
2023-02-01T06:42:18.186Z,82.27
2023-02-01T06:44:19.614Z,82.06
2023-02-01T06:46:21.024Z,81.20
2023-02-01T06:48:22.427Z,81.59
2023-02-01T06:50:24.177Z,81.81
2023-02-01T06:52:25.791Z,81.82
2023-02-01T06:54:28.166Z,81.99
2023-02-01T06:56:29.663Z,81.51
2023-02-01T06:58:33.273Z,82.07
2023-02-01T07:00:34.724Z,81.22
2023-02-01T07:02:36.473Z,81.82
2023-02-01T07:04:37.977Z,81.67
2023-02-01T07:06:40.724Z,82.04
2023-02-01T07:08:42.087Z,81.76
2023-02-01T07:10:43.461Z,81.51
2023-02-01T07:12:44.862Z,81.68
2023-02-01T07:14:46.264Z,81.06
2023-02-01T07:16:47.652Z,82.14
2023-02-01T07:18:51.158Z,81.61
2023-02-01T07:20:52.632Z,81.75
2023-02-01T07:22:58.218Z,82.19
2023-02-01T07:24:59.596Z,81.90
2023-02-01T07:27:00.953Z,81.96
2023-02-01T07:29:02.339Z,82.02
2023-02-01T07:31:08.960Z,81.38
2023-02-01T07:33:10.376Z,81.12
2023-02-01T07:35:11.774Z,81.86
2023-02-01T07:37:13.240Z,81.62
2023-02-01T07:39:14.602Z,81.48
2023-02-01T07:41:16.459Z,81.66
2023-02-01T07:43:17.847Z,81.59
2023-02-01T07:45:21.769Z,81.42
2023-02-01T07:47:23.347Z,81.83
2023-02-01T07:49:24.771Z,82.02
2023-02-01T07:51:26.209Z,82.04
2023-02-01T07:53:27.954Z,81.55
2023-02-01T07:55:29.563Z,81.55
2023-02-01T07:57:30.971Z,81.78
2023-02-01T07:59:32.316Z,81.55
2023-02-01T08:01:33.806Z,82.14
2023-02-01T08:03:35.464Z,82.12
2023-02-01T08:05:37.856Z,81.42
2023-02-01T08:07:39.264Z,81.99
2023-02-01T08:09:40.621Z,81.89
2023-02-01T08:11:42.007Z,81.45
2023-02-01T08:13:44.283Z,81.62
2023-02-01T08:15:45.650Z,81.55
2023-02-01T08:17:51.436Z,81.47
2023-02-01T08:19:52.794Z,81.01
2023-02-01T08:21:54.216Z,80.82
2023-02-01T08:23:57.090Z,81.68
2023-02-01T08:26:17.305Z,81.40
2023-02-01T08:28:18.769Z,81.01
2023-02-01T08:30:20.554Z,81.27
2023-02-01T08:32:22.044Z,80.86
2023-02-01T08:34:24.019Z,81.21
2023-02-01T08:36:27.550Z,81.03
2023-02-01T08:38:28.922Z,81.34
2023-02-01T08:40:30.383Z,81.99
2023-02-01T08:42:50.590Z,81.43
2023-02-01T08:44:52.538Z,81.51
2023-02-01T08:46:53.908Z,81.90
2023-02-01T08:48:55.302Z,81.50
2023-02-01T08:50:57.294Z,81.21
2023-02-01T08:52:58.647Z,81.70
2023-02-01T08:54:59.992Z,81.55
2023-02-01T08:57:01.403Z,81.50
2023-02-01T08:59:02.810Z,81.54
2023-02-01T09:01:13.396Z,81.23
2023-02-01T09:03:15.038Z,81.85
2023-02-01T09:05:19.073Z,81.65
2023-02-01T09:07:20.514Z,81.09
2023-02-01T09:09:22.947Z,81.40
2023-02-01T09:11:24.324Z,81.72
2023-02-01T09:13:25.714Z,81.74
2023-02-01T09:15:27.223Z,80.40
2023-02-01T09:17:30.288Z,81.39
2023-02-01T09:19:32.465Z,80.71
2023-02-01T09:21:33.832Z,81.19
2023-02-01T09:23:35.840Z,80.29
2023-02-01T09:25:39.201Z,80.94
2023-02-01T09:27:40.561Z,80.35
2023-02-01T09:29:41.981Z,80.42
2023-02-01T09:31:49.905Z,79.97
2023-02-01T09:33:58.935Z,79.77
2023-02-01T09:36:02.348Z,79.69
2023-02-01T09:38:03.709Z,80.12
2023-02-01T09:40:05.687Z,80.18
2023-02-01T09:42:34.498Z,80.07
2023-02-01T09:44:53.959Z,80.08
2023-02-01T09:47:00.339Z,80.51
2023-02-01T09:49:12.693Z,79.56
2023-02-01T09:51:19.748Z,80.59
2023-02-01T09:53:21.025Z,80.30
2023-02-01T09:55:42.681Z,79.62
2023-02-01T09:57:55.323Z,80.16
2023-02-01T10:00:05.619Z,79.96
2023-02-01T10:02:15.860Z,79.23
2023-02-01T10:04:19.011Z,79.45
2023-02-01T10:06:31.787Z,79.71
2023-02-01T10:08:51.755Z,79.65
2023-02-01T10:10:58.385Z,79.83
2023-02-01T10:13:18.818Z,78.90
2023-02-01T10:15:38.847Z,80.29
2023-02-01T10:17:43.892Z,79.10
2023-02-01T10:20:16.462Z,79.56
2023-02-01T10:23:10.352Z,78.92
2023-02-01T10:25:40.489Z,78.80
2023-02-01T10:27:42.624Z,78.61
2023-02-01T10:29:48.035Z,78.64
2023-02-01T10:31:49.740Z,78.73
2023-02-01T10:34:02.116Z,78.42
2023-02-01T10:36:23.853Z,78.33
2023-02-01T10:38:29.766Z,77.88
2023-02-01T10:40:31.207Z,78.49
2023-02-01T10:42:32.610Z,79.13
2023-02-01T10:44:46.373Z,78.92
2023-02-01T10:46:47.907Z,78.53
2023-02-01T10:48:51.587Z,79.32
2023-02-01T10:51:00.950Z,78.47
2023-02-01T10:53:09.943Z,78.15
2023-02-01T10:55:28.838Z,78.50
2023-02-01T10:57:32.739Z,78.84
2023-02-01T10:59:37.185Z,78.13
2023-02-01T11:01:41.987Z,78.68
2023-02-01T11:03:43.637Z,78.24
2023-02-01T11:05:47.186Z,78.48
2023-02-01T11:07:55.714Z,78.33
2023-02-01T11:09:58.841Z,78.96
2023-02-01T11:12:01.043Z,78.85
2023-02-01T11:14:15.500Z,78.33
2023-02-01T11:16:17.016Z,77.51
2023-02-01T11:18:28.325Z,78.02
2023-02-01T11:20:32.491Z,78.50
2023-02-01T11:22:34.024Z,78.14
2023-02-01T11:24:39.088Z,78.41
2023-02-01T11:26:42.428Z,78.24
2023-02-01T11:28:53.191Z,78.52
2023-02-01T11:30:57.396Z,77.82
2023-02-01T11:33:00.154Z,78.47
2023-02-01T11:35:06.018Z,78.40
2023-02-01T11:37:20.822Z,78.66
2023-02-01T11:39:29.495Z,77.85
2023-02-01T11:41:31.925Z,78.71
2023-02-01T11:43:33.349Z,78.22
2023-02-01T11:45:44.111Z,78.46
2023-02-01T11:47:46.995Z,77.50
2023-02-01T11:49:50.798Z,77.39
2023-02-01T11:52:09.548Z,78.19
2023-02-01T11:54:30.125Z,77.60
2023-02-01T11:56:38.568Z,77.14
2023-02-01T11:58:57.752Z,76.97
2023-02-01T12:01:09.332Z,78.01
2023-02-01T12:03:16.456Z,78.51
2023-02-01T12:06:16.759Z,78.14
2023-02-01T12:08:38.325Z,77.90
2023-02-01T12:11:03.741Z,78.17
2023-02-01T12:13:23.855Z,79.75
2023-02-01T12:15:34.235Z,80.15
2023-02-01T12:17:51.383Z,82.44
2023-02-01T12:20:24.651Z,82.22
2023-02-01T12:23:20.582Z,82.19
2023-02-01T12:25:44.803Z,83.07
2023-02-01T12:27:58.357Z,82.87
2023-02-01T12:30:30.742Z,83.38
2023-02-01T12:32:39.914Z,83.59
2023-02-01T12:35:22.056Z,83.49
2023-02-01T12:37:35.518Z,83.80
2023-02-01T12:39:46.738Z,82.98
2023-02-01T12:42:00.156Z,82.98
2023-02-01T12:44:30.471Z,83.23
2023-02-01T12:46:40.589Z,82.45
2023-02-01T12:49:06.690Z,83.48
2023-02-01T12:51:28.267Z,83.29
2023-02-01T12:54:06.884Z,83.61
2023-02-01T12:56:14.334Z,82.81
2023-02-01T12:58:28.828Z,82.06
2023-02-01T13:00:44.501Z,81.69
2023-02-01T13:02:55.787Z,81.64
2023-02-01T13:05:18.909Z,81.61
2023-02-01T13:07:26.414Z,82.88
2023-02-01T13:09:35.817Z,81.62
2023-02-01T13:11:44.942Z,82.35
2023-02-01T13:14:17.375Z,82.32
2023-02-01T13:16:27.955Z,83.01
2023-02-01T13:18:38.665Z,82.43
2023-02-01T13:21:04.993Z,83.64
2023-02-01T13:23:31.230Z,84.42
2023-02-01T13:25:47.874Z,84.28
2023-02-01T13:27:49.865Z,84.67
2023-02-01T13:30:02.743Z,83.97
2023-02-01T13:32:20.576Z,84.50
2023-02-01T13:34:24.721Z,84.95
2023-02-01T13:36:36.696Z,84.31
2023-02-01T13:38:57.025Z,83.88
2023-02-01T13:41:16.585Z,85.13
2023-02-01T13:43:28.849Z,84.23
2023-02-01T13:45:37.696Z,83.94
2023-02-01T13:47:44.572Z,84.24
2023-02-01T13:49:46.380Z,83.33
2023-02-01T13:51:51.810Z,83.31
2023-02-01T13:53:53.534Z,83.25
2023-02-01T13:56:04.227Z,83.97
2023-02-01T13:58:18.858Z,83.48
2023-02-01T14:00:31.320Z,83.87
2023-02-01T14:02:41.824Z,82.99
2023-02-01T14:04:51.348Z,82.87
2023-02-01T14:06:54.357Z,83.24
2023-02-01T14:09:14.889Z,83.01
2023-02-01T14:11:36.705Z,83.73
2023-02-01T14:13:40.531Z,82.60
2023-02-01T14:16:12.214Z,82.87
2023-02-01T14:18:47.314Z,82.87
2023-02-01T14:20:54.099Z,83.50
2023-02-01T14:23:05.447Z,82.83
2023-02-01T14:25:18.184Z,82.36
2023-02-01T14:27:24.042Z,82.27
2023-02-01T14:29:38.419Z,82.15
2023-02-01T14:31:54.442Z,82.60
2023-02-01T14:34:00.110Z,81.75
2023-02-01T14:36:07.479Z,81.62
2023-02-01T14:38:12.149Z,81.92
2023-02-01T14:40:13.454Z,82.03
2023-02-01T14:42:22.801Z,82.51
2023-02-01T14:44:27.793Z,82.82
2023-02-01T14:47:06.134Z,82.64
2023-02-01T14:49:07.774Z,83.81
2023-02-01T14:51:12.417Z,83.03
2023-02-01T14:53:20.069Z,83.85
2023-02-01T14:58:17.012Z,83.18
2023-02-01T15:00:30.415Z,83.35
2023-02-01T15:02:36.154Z,84.16
2023-02-01T15:04:42.807Z,82.50
2023-02-01T15:06:53.237Z,82.41
2023-02-01T15:08:58.318Z,81.72
2023-02-01T15:11:03.971Z,82.75
2023-02-01T15:13:05.404Z,82.29
2023-02-01T15:15:18.058Z,82.57
2023-02-01T15:17:22.672Z,81.84
2023-02-01T15:19:26.772Z,81.68
2023-02-01T15:21:30.965Z,82.14
2023-02-01T15:23:34.140Z,82.44
2023-02-01T15:25:39.901Z,81.56
2023-02-01T15:27:41.375Z,80.88
2023-02-01T15:29:42.746Z,82.09
2023-02-01T15:31:47.717Z,82.25
2023-02-01T15:33:58.538Z,83.30
2023-02-01T15:36:05.872Z,83.16
2023-02-01T15:38:29.543Z,84.32
2023-02-01T15:40:31.811Z,84.46
2023-02-01T15:42:33.299Z,85.00
2023-02-01T15:44:41.361Z,85.01
2023-02-01T15:46:47.936Z,84.18
2023-02-01T15:48:52.935Z,84.28
2023-02-01T15:50:56.492Z,83.49
2023-02-01T15:52:58.013Z,84.07
2023-02-01T15:55:02.751Z,83.59
2023-02-01T15:57:06.392Z,83.05
2023-02-01T15:59:19.884Z,83.42
2023-02-01T16:01:21.626Z,82.00
2023-02-01T16:03:33.878Z,81.96
2023-02-01T16:05:39.361Z,82.68
2023-02-01T16:07:41.668Z,81.87
2023-02-01T16:09:55.127Z,82.54
2023-02-01T16:12:01.654Z,81.95
2023-02-01T16:14:03.042Z,81.69
2023-02-01T16:16:08.916Z,82.56
2023-02-01T16:18:12.279Z,82.94
2023-02-01T16:20:13.925Z,83.23
2023-02-01T16:22:15.300Z,83.59
2023-02-01T16:24:16.654Z,82.39
2023-02-01T16:26:18.301Z,82.70
2023-02-01T16:28:19.669Z,82.57
2023-02-01T16:30:24.065Z,82.17
2023-02-01T16:32:27.522Z,81.96
2023-02-01T16:34:28.922Z,81.36
2023-02-01T16:36:30.393Z,81.91
2023-02-01T16:38:32.336Z,81.54
2023-02-01T16:40:34.319Z,79.93
2023-02-01T16:42:38.418Z,81.45
2023-02-01T16:44:39.930Z,79.72
2023-02-01T16:46:45.988Z,80.58
2023-02-01T16:48:52.367Z,80.95
2023-02-01T16:50:56.978Z,82.05
2023-02-01T16:52:58.344Z,82.15
2023-02-01T16:54:59.734Z,82.85
2023-02-01T16:57:01.089Z,84.23
2023-02-01T16:59:03.189Z,84.72
2023-02-01T17:01:04.745Z,84.54
2023-02-01T17:03:06.400Z,84.87
2023-02-01T17:05:08.129Z,85.69
2023-02-01T17:07:17.894Z,86.65
2023-02-01T17:09:19.372Z,87.59
2023-02-01T17:11:21.276Z,88.02
2023-02-01T17:13:22.669Z,88.16
2023-02-01T17:15:27.140Z,88.07
2023-02-01T17:17:39.793Z,88.50
2023-02-01T17:19:41.492Z,88.04
2023-02-01T17:21:53.223Z,89.59
2023-02-01T17:23:55.463Z,88.97
2023-02-01T17:25:57.604Z,87.67
2023-02-01T17:27:59.643Z,87.39
2023-02-01T17:30:04.105Z,87.99
2023-02-01T17:32:06.731Z,88.07
2023-02-01T17:34:10.873Z,88.42
2023-02-01T17:36:17.847Z,89.12
2023-02-01T17:38:19.225Z,88.66
2023-02-01T17:40:20.790Z,89.18
2023-02-01T17:42:23.455Z,89.10
2023-02-01T17:44:24.827Z,89.07
2023-02-01T17:46:27.243Z,89.46
2023-02-01T17:48:29.489Z,89.40
2023-02-01T17:50:32.193Z,89.49
2023-02-01T17:52:35.990Z,89.64
2023-02-01T17:54:38.322Z,89.91
2023-02-01T17:56:39.940Z,89.67
2023-02-01T17:58:41.484Z,89.87
2023-02-01T18:00:44.054Z,90.19
2023-02-01T18:02:45.723Z,90.06
2023-02-01T18:04:47.415Z,90.16
2023-02-01T18:06:48.802Z,89.62
2023-02-01T18:08:50.733Z,89.94
2023-02-01T18:10:55.394Z,90.31
2023-02-01T18:12:57.479Z,90.42
2023-02-01T18:14:58.935Z,90.93
2023-02-01T18:17:00.546Z,90.88
2023-02-01T18:19:02.388Z,90.57
2023-02-01T18:21:03.830Z,90.73
2023-02-01T18:23:05.219Z,90.80
2023-02-01T18:25:21.850Z,91.10
2023-02-01T18:27:23.890Z,91.17
2023-02-01T18:29:25.407Z,91.65
2023-02-01T18:31:31.513Z,91.33
2023-02-01T18:33:33.070Z,91.59
2023-02-01T18:35:34.583Z,91.81
2023-02-01T18:37:35.921Z,92.15
2023-02-01T18:39:39.304Z,92.64
2023-02-01T18:41:41.647Z,91.80
2023-02-01T18:43:43.996Z,92.34
2023-02-01T18:45:46.615Z,91.93
2023-02-01T18:47:48.221Z,92.33
2023-02-01T18:49:49.586Z,91.34
2023-02-01T18:51:53.539Z,91.41
2023-02-01T18:53:55.016Z,91.00
2023-02-01T18:55:58.650Z,91.35
2023-02-01T18:58:01.332Z,90.56
2023-02-01T19:00:05.731Z,90.93
2023-02-01T19:02:07.237Z,91.13
2023-02-01T19:04:14.803Z,90.52
2023-02-01T19:06:26.226Z,90.59
2023-02-01T19:08:27.688Z,90.13
2023-02-01T19:10:29.163Z,90.49
2023-02-01T19:12:30.525Z,89.94
2023-02-01T19:14:32.139Z,90.06
2023-02-01T19:16:35.985Z,90.10
2023-02-01T19:18:38.103Z,90.50
2023-02-01T19:20:41.324Z,91.01
2023-02-01T19:22:43.020Z,90.87
2023-02-01T19:24:45.065Z,90.19
2023-02-01T19:26:49.070Z,90.26
2023-02-01T19:28:50.969Z,90.60
2023-02-01T19:31:02.856Z,90.33
2023-02-01T19:33:04.648Z,90.88
2023-02-01T19:35:07.237Z,91.20
2023-02-01T19:37:09.349Z,90.84
2023-02-01T19:39:10.896Z,90.90
2023-02-01T19:41:12.334Z,90.87
2023-02-01T19:43:13.727Z,91.23
2023-02-01T19:45:15.841Z,90.59
2023-02-01T19:47:17.566Z,90.94
2023-02-01T19:49:19.497Z,90.82
2023-02-01T19:51:20.903Z,91.37
2023-02-01T19:53:25.731Z,91.57
2023-02-01T19:55:27.541Z,92.28
2023-02-01T19:57:30.136Z,91.53
2023-02-01T19:59:32.002Z,92.12
2023-02-01T20:01:33.609Z,92.03
2023-02-01T20:03:34.994Z,92.16
2023-02-01T20:05:39.305Z,90.97
2023-02-01T20:07:41.206Z,89.49
2023-02-01T20:09:42.630Z,89.44
2023-02-01T20:11:44.381Z,90.01
2023-02-01T20:13:45.725Z,90.37
2023-02-01T20:15:47.143Z,90.08
2023-02-01T20:17:48.565Z,89.68
2023-02-01T20:19:49.995Z,90.45
2023-02-01T20:21:51.391Z,90.78
2023-02-01T20:23:52.832Z,91.03
2023-02-01T20:25:55.137Z,90.65
2023-02-01T20:27:56.589Z,90.23
2023-02-01T20:29:58.016Z,90.27
2023-02-01T20:31:59.550Z,90.29
2023-02-01T20:34:01.776Z,90.28
2023-02-01T20:36:03.884Z,90.73
2023-02-01T20:38:05.240Z,90.50
2023-02-01T20:40:07.398Z,90.80
2023-02-01T20:42:08.766Z,90.59
2023-02-01T20:44:10.271Z,90.64
2023-02-01T20:46:11.775Z,90.77
2023-02-01T20:48:13.235Z,91.23
2023-02-01T20:50:14.745Z,91.00
2023-02-01T20:52:16.123Z,90.52
2023-02-01T20:54:17.549Z,90.89
2023-02-01T20:56:20.466Z,91.34
2023-02-01T20:58:22.402Z,91.29
2023-02-01T21:00:24.252Z,91.52
2023-02-01T21:02:25.795Z,91.60
2023-02-01T21:04:27.603Z,91.58
2023-02-01T21:06:29.044Z,91.86
2023-02-01T21:08:31.562Z,92.06
2023-02-01T21:10:33.765Z,92.26
2023-02-01T21:12:35.473Z,92.94
2023-02-01T21:14:36.910Z,92.84
2023-02-01T21:16:38.582Z,92.97
2023-02-01T21:18:40.098Z,92.73
2023-02-01T21:20:42.495Z,92.60
2023-02-01T21:22:44.163Z,92.79
2023-02-01T21:24:45.620Z,92.08
2023-02-01T21:26:47.052Z,92.28
2023-02-01T21:28:49.202Z,92.25
2023-02-01T21:30:51.438Z,92.36
2023-02-01T21:32:53.342Z,92.54
2023-02-01T21:34:54.744Z,92.48
2023-02-01T21:36:56.138Z,92.43
2023-02-01T21:39:03.529Z,92.51
2023-02-01T21:41:37.486Z,92.83
2023-02-01T21:43:38.954Z,93.13
2023-02-01T21:45:46.132Z,93.06
2023-02-01T21:47:52.431Z,92.06
2023-02-01T21:49:54.275Z,91.47
2023-02-01T21:51:56.371Z,90.43
2023-02-01T21:53:57.766Z,92.11
2023-02-01T21:55:59.172Z,92.53
2023-02-01T21:58:00.582Z,92.17
2023-02-01T22:00:03.270Z,92.00
2023-02-01T22:02:06.049Z,91.71
2023-02-01T22:04:07.990Z,91.64
2023-02-01T22:06:09.358Z,92.15
2023-02-01T22:08:10.743Z,92.03
2023-02-01T22:10:13.159Z,92.07
2023-02-01T22:12:14.824Z,92.03
2023-02-01T22:14:16.689Z,91.83
2023-02-01T22:16:21.283Z,92.01
2023-02-01T22:18:22.758Z,92.31
2023-02-01T22:20:24.127Z,92.03
2023-02-01T22:22:25.542Z,91.69
2023-02-01T22:24:26.969Z,91.15
2023-02-01T22:26:28.460Z,91.65
2023-02-01T22:28:31.964Z,91.35
2023-02-01T22:30:35.029Z,92.07
2023-02-01T22:32:36.485Z,92.39
2023-02-01T22:34:38.960Z,91.61
2023-02-01T22:36:40.860Z,92.33
2023-02-01T22:38:42.580Z,92.31
2023-02-01T22:40:44.136Z,92.41
2023-02-01T22:42:47.274Z,91.71
2023-02-01T22:44:48.612Z,91.84
2023-02-01T22:46:50.399Z,91.96
2023-02-01T22:48:52.319Z,91.93
2023-02-01T22:50:57.974Z,91.71
2023-02-01T22:52:59.384Z,92.42
2023-02-01T22:55:00.716Z,91.75
2023-02-01T22:57:02.640Z,91.91
2023-02-01T22:59:06.637Z,92.07
2023-02-01T23:01:13.851Z,92.06
2023-02-01T23:03:15.210Z,91.66
2023-02-01T23:05:16.822Z,92.46
2023-02-01T23:07:18.219Z,92.26
2023-02-01T23:09:23.722Z,92.72
2023-02-01T23:11:26.074Z,92.37
2023-02-01T23:13:27.704Z,92.38
2023-02-01T23:15:29.201Z,92.58
2023-02-01T23:17:31.352Z,93.32
2023-02-01T23:19:32.703Z,93.32
2023-02-01T23:21:34.092Z,93.34
2023-02-01T23:23:35.862Z,93.62
2023-02-01T23:25:37.259Z,93.46
2023-02-01T23:27:38.713Z,93.84
2023-02-01T23:29:40.168Z,93.82
2023-02-01T23:31:41.729Z,93.33
2023-02-01T23:33:45.414Z,93.71
2023-02-01T23:35:57.464Z,93.57
2023-02-01T23:37:58.940Z,93.33
2023-02-01T23:40:00.337Z,93.16
2023-02-01T23:42:03.282Z,93.13
2023-02-01T23:44:04.834Z,93.03
2023-02-01T23:46:06.305Z,92.82
2023-02-01T23:48:07.694Z,92.65
2023-02-01T23:50:09.409Z,92.87
2023-02-01T23:52:10.930Z,92.94
2023-02-01T23:54:12.313Z,92.67
2023-02-01T23:56:31.194Z,93.00
2023-02-01T23:58:32.820Z,93.13
